Time;durP1;ratioP1;P1;durP2;ratioP2;P2;SDS_P1;SDS_P2;PMS_P1;PMS_P2;Temp;Humidity;BMP_temperature;BMP_pressure;BME280_temperature;BME280_humidity;BME280_pressure;Samples;Min_cycle;Max_cycle;Signal;HPM_P1;HPM_P2
2021/06/02 00:01:25;;;;;;;3.13;1.00;;;33.10;95.90;;;;;;5037162;28;20322;-96
2021/06/02 00:03:57;;;;;;;0.95;0.63;;;32.90;95.80;;;;;;5065844;28;20237;-93
2021/06/02 00:06:29;;;;;;;1.58;0.90;;;33.10;96.80;;;;;;5077999;28;20234;-96
2021/06/02 00:09:04;;;;;;;3.00;0.68;;;32.80;95.80;;;;;;5078428;28;20227;-96
2021/06/02 00:11:37;;;;;;;4.95;0.70;;;33.00;96.30;;;;;;5040451;28;20200;-96
2021/06/02 00:14:09;;;;;;;0.73;0.70;;;33.10;96.60;;;;;;5023548;28;20301;-96
2021/06/02 00:16:45;;;;;;;1.25;0.80;;;33.10;95.40;;;;;;5059983;28;20188;-96
2021/06/02 00:19:20;;;;;;;1.85;0.80;;;33.10;95.80;;;;;;5076184;28;20231;-96
2021/06/02 00:21:52;;;;;;;1.48;0.80;;;33.20;95.60;;;;;;5074869;28;20227;-96
2021/06/02 00:24:25;;;;;;;2.72;0.75;;;33.20;96.20;;;;;;5074870;28;20184;-96
2021/06/02 00:26:59;;;;;;;2.70;1.08;;;33.10;95.90;;;;;;5063217;28;20207;-96
2021/06/02 00:29:32;;;;;;;1.33;0.73;;;33.10;95.40;;;;;;5036966;28;20217;-96
2021/06/02 00:32:04;;;;;;;1.83;0.80;;;33.20;95.10;;;;;;5039100;28;20233;-96
2021/06/02 00:34:36;;;;;;;1.17;0.90;;;33.10;95.10;;;;;;5038542;28;20235;-96
2021/06/02 00:37:09;;;;;;;3.42;0.90;;;33.10;94.30;;;;;;5065366;28;20275;-96
2021/06/02 00:39:47;;;;;;;1.92;0.98;;;33.10;95.00;;;;;;5065066;28;20211;-95
2021/06/02 00:42:18;;;;;;;2.63;1.00;;;33.10;95.50;;;;;;5058394;28;20239;-96
2021/06/02 00:44:49;;;;;;;1.55;0.73;;;33.10;94.70;;;;;;5042932;28;20272;-95
2021/06/02 00:47:20;;;;;;;1.42;0.82;;;32.90;94.60;;;;;;5042791;28;20236;-96
2021/06/02 00:49:52;;;;;;;2.30;0.80;;;32.90;94.20;;;;;;5025497;28;20200;-96
2021/06/02 00:52:23;;;;;;;1.83;0.50;;;33.20;93.30;;;;;;5055886;28;20208;-96
2021/06/02 00:54:55;;;;;;;3.90;0.77;;;33.50;92.90;;;;;;5044487;28;20201;-94
2021/06/02 00:57:30;;;;;;;2.55;0.82;;;33.70;94.00;;;;;;5041708;28;20216;-95
2021/06/02 01:00:07;;;;;;;4.25;0.90;;;34.40;93.00;;;;;;5065220;28;20207;-94
2021/06/02 01:02:38;;;;;;;2.28;0.80;;;35.00;93.00;;;;;;5058956;28;20668;-95
2021/06/02 01:05:09;;;;;;;3.03;0.98;;;35.30;92.30;;;;;;5054197;28;20231;-96
2021/06/02 01:07:41;;;;;;;1.20;0.80;;;35.20;92.10;;;;;;5041844;28;20251;-94
2021/06/02 01:10:16;;;;;;;2.80;1.05;;;35.50;92.60;;;;;;5055590;28;20219;-94
2021/06/02 01:12:51;;;;;;;2.80;0.90;;;35.60;91.80;;;;;;5067251;28;20204;-96
2021/06/02 01:15:22;;;;;;;3.20;0.80;;;35.80;91.10;;;;;;5050280;28;20209;-93
2021/06/02 01:17:53;;;;;;;0.77;0.70;;;35.60;90.70;;;;;;5049282;28;20299;-94
2021/06/02 01:20:25;;;;;;;1.70;1.15;;;35.90;91.10;;;;;;5054721;28;20238;-95
2021/06/02 01:22:59;;;;;;;1.63;0.80;;;36.10;91.20;;;;;;5045169;28;20244;-94
2021/06/02 01:25:31;;;;;;;2.28;1.10;;;36.00;90.70;;;;;;5058902;28;20193;-96
2021/06/02 01:28:03;;;;;;;1.13;0.80;;;35.90;90.90;;;;;;5040792;28;20197;-96
2021/06/02 01:30:35;;;;;;;1.75;0.88;;;35.70;90.60;;;;;;5052944;28;20212;-96
2021/06/02 01:33:41;;;;;;;3.10;1.10;;;35.60;90.90;;;;;;5045549;28;20205;-95
2021/06/02 01:36:14;;;;;;;1.75;0.90;;;35.80;91.10;;;;;;5041351;28;20223;-95
2021/06/02 01:39:11;;;;;;;1.45;0.85;;;36.00;90.30;;;;;;5047060;28;20211;-95
2021/06/02 01:42:09;;;;;;;1.40;1.17;;;35.90;91.00;;;;;;5039918;28;20672;-95
2021/06/02 01:45:14;;;;;;;3.00;1.02;;;36.00;90.90;;;;;;5053521;28;20268;-95
2021/06/02 01:48:11;;;;;;;1.35;1.08;;;35.60;91.30;;;;;;5046410;28;20251;-96
2021/06/02 01:51:31;;;;;;;2.55;1.15;;;35.20;91.70;;;;;;5037564;28;20240;-95
2021/06/02 01:54:55;;;;;;;3.45;0.93;;;35.40;91.30;;;;;;5048229;28;20235;-95
2021/06/02 01:57:56;;;;;;;3.38;1.25;;;35.80;91.50;;;;;;4988526;28;20221;-95
2021/06/02 02:00:55;;;;;;;3.78;1.17;;;35.90;91.00;;;;;;5020170;28;20239;-96
2021/06/02 02:04:02;;;;;;;3.25;0.90;;;36.20;91.00;;;;;;5021155;28;20209;-92
2021/06/02 02:10:44;;;;;;;5.50;1.20;;;36.20;90.60;;;;;;5029574;28;20224;-96
2021/06/02 02:14:04;;;;;;;1.30;0.77;;;36.30;90.30;;;;;;5032889;28;20253;-96
2021/06/02 02:20:25;;;;;;;2.90;1.15;;;35.80;90.10;;;;;;5008962;28;20279;-96
2021/06/02 02:23:22;;;;;;;7.80;7.07;;;36.10;89.70;;;;;;4989713;28;20209;-96
2021/06/02 02:26:10;;;;;;;1.60;1.08;;;35.60;90.20;;;;;;5016743;28;20226;-96
2021/06/02 02:33:09;;;;;;;5.80;1.20;;;34.10;91.00;;;;;;5012297;28;20241;-96
2021/06/02 02:36:00;;;;;;;2.88;1.05;;;32.80;91.80;;;;;;5011176;28;20739;-96
2021/06/02 02:42:30;;;;;;;2.13;1.20;;;30.80;94.20;;;;;;5019204;28;20229;-96
2021/06/02 02:45:10;;;;;;;4.00;1.40;;;30.10;95.20;;;;;;5001294;28;20198;-96
2021/06/02 02:51:19;;;;;;;6.63;1.30;;;29.30;95.70;;;;;;5030157;28;20181;-96
2021/06/02 02:53:58;;;;;;;2.08;1.10;;;28.80;96.40;;;;;;5042121;28;20190;-96
2021/06/02 03:33:43;;;;;;;4.07;2.00;;;25.70;99.90;;;;;;5372922;23;20244;-96
2021/06/02 03:36:30;;;;;;;2.60;1.40;;;25.50;99.90;;;;;;5027168;28;20224;-96
2021/06/02 03:39:10;;;;;;;5.10;1.70;;;25.30;99.90;;;;;;5016045;28;20228;-96
2021/06/02 03:42:12;;;;;;;4.60;1.60;;;25.20;99.90;;;;;;5031177;28;20287;-96
2021/06/02 03:45:49;;;;;;;3.00;1.57;;;25.10;99.90;;;;;;5032776;28;20228;-96
2021/06/02 03:48:48;;;;;;;1.53;1.23;;;25.00;99.90;;;;;;5013026;28;20201;-96
2021/06/02 03:54:38;;;;;;;3.70;1.53;;;24.80;99.90;;;;;;5030841;28;20185;-96
2021/06/02 03:57:34;;;;;;;5.43;1.10;;;24.60;99.90;;;;;;5037810;28;20197;-96
2021/06/02 04:14:04;;;;;;;3.47;1.50;;;23.70;99.90;;;;;;6063249;23;21456;-92
2021/06/02 04:16:36;;;;;;;4.30;1.40;;;23.60;99.90;;;;;;4998874;28;20317;-93
2021/06/02 04:22:09;;;;;;;2.40;1.30;;;23.40;99.90;;;;;;5007393;28;20240;-92
2021/06/02 04:24:40;;;;;;;5.37;2.10;;;23.30;99.90;;;;;;4999710;28;20238;-92
2021/06/02 04:27:17;;;;;;;2.90;1.53;;;23.10;99.90;;;;;;5000819;28;20232;-92
2021/06/02 04:29:52;;;;;;;2.13;1.77;;;23.00;99.90;;;;;;4998596;28;20720;-92
2021/06/02 04:32:32;;;;;;;3.07;1.63;;;23.00;99.90;;;;;;5004947;28;20208;-96
2021/06/02 04:38:41;;;;;;;3.17;1.50;;;22.80;99.90;;;;;;5005146;28;20205;-96
2021/06/02 04:47:41;;;;;;;4.13;1.50;;;22.60;99.90;;;;;;4994178;28;20202;-96
2021/06/02 04:54:02;;;;;;;1.90;1.47;;;22.60;99.90;;;;;;4991057;28;20234;-96
2021/06/02 04:57:23;;;;;;;2.23;1.50;;;22.60;99.90;;;;;;4989620;28;20215;-96
2021/06/02 05:00:45;;;;;;;2.87;1.40;;;22.50;99.90;;;;;;4980395;28;20215;-96
2021/06/02 05:03:54;;;;;;;3.27;1.67;;;22.50;99.90;;;;;;4989336;28;20234;-96
2021/06/02 05:07:05;;;;;;;2.87;1.43;;;22.40;99.90;;;;;;4967983;28;20214;-96
2021/06/02 05:10:21;;;;;;;1.33;1.20;;;22.30;99.90;;;;;;4984479;28;20266;-96
2021/06/02 05:13:59;;;;;;;1.77;1.30;;;22.20;99.90;;;;;;4995398;28;20234;-96
2021/06/02 05:25:32;;;;;;;2.77;1.27;;;22.00;99.90;;;;;;5025044;28;20236;-96
2021/06/02 05:32:35;;;;;;;3.30;1.27;;;21.80;99.90;;;;;;4947201;28;20236;-96
2021/06/02 05:35:42;;;;;;;3.70;1.43;;;21.80;99.90;;;;;;4993345;28;20273;-96
2021/06/02 05:39:13;;;;;;;2.73;1.23;;;21.70;99.90;;;;;;4995626;28;20205;-96
2021/06/02 06:13:13;;;;;;;2.47;1.37;;;21.10;99.90;;;;;;4866035;29;20290;-96
2021/06/02 06:20:22;;;;;;;3.50;1.80;;;20.90;99.90;;;;;;4869721;29;20238;-96
2021/06/02 06:23:44;;;;;;;2.43;1.70;;;20.90;99.90;;;;;;4855867;29;20246;-96
2021/06/02 07:26:07;;;;;;;2.07;1.23;;;19.70;99.90;;;;;;4948451;29;20276;-96
2021/06/02 07:29:04;;;;;;;1.50;1.30;;;19.70;99.90;;;;;;4943071;29;20208;-96
2021/06/02 07:31:39;;;;;;;1.40;1.20;;;19.60;99.90;;;;;;4915206;29;20272;-96
2021/06/02 07:34:16;;;;;;;1.40;1.20;;;19.60;99.90;;;;;;4939752;29;20234;-96
2021/06/02 07:36:49;;;;;;;1.93;1.50;;;19.60;99.90;;;;;;4942791;29;20282;-96
2021/06/02 07:39:19;;;;;;;2.77;1.30;;;19.50;99.90;;;;;;4944205;29;20216;-96
2021/06/02 07:42:44;;;;;;;3.63;1.10;;;19.40;99.90;;;;;;4944655;29;20236;-96
2021/06/02 07:45:20;;;;;;;1.43;1.10;;;19.30;99.90;;;;;;4945096;29;20550;-96
2021/06/02 07:47:50;;;;;;;1.53;1.10;;;19.30;99.90;;;;;;4944090;29;20275;-96
2021/06/02 07:50:23;;;;;;;2.70;1.30;;;19.20;99.90;;;;;;4946370;29;20208;-96
2021/06/02 07:53:05;;;;;;;1.80;1.10;;;19.10;99.90;;;;;;4950091;29;20303;-96
2021/06/02 07:55:38;;;;;;;3.60;1.30;;;19.10;99.90;;;;;;4950215;29;20223;-96
2021/06/02 07:58:20;;;;;;;3.63;1.10;;;19.10;99.90;;;;;;4951706;29;20212;-96
2021/06/02 08:00:51;;;;;;;1.63;1.07;;;19.00;99.90;;;;;;4948891;29;20212;-96
2021/06/02 08:03:21;;;;;;;2.33;1.10;;;19.00;99.90;;;;;;4940488;29;20228;-96
2021/06/02 08:06:01;;;;;;;1.70;1.30;;;18.90;99.90;;;;;;4952433;29;20236;-96
2021/06/02 08:08:35;;;;;;;0.80;0.80;;;18.90;99.90;;;;;;4951829;29;20226;-96
2021/06/02 08:11:20;;;;;;;1.33;1.07;;;18.90;99.90;;;;;;4939839;28;20224;-96
2021/06/02 08:14:08;;;;;;;5.70;1.10;;;18.80;99.90;;;;;;4959228;28;20212;-96
2021/06/02 08:16:41;;;;;;;2.53;1.10;;;18.70;99.90;;;;;;4960060;28;20200;-96
2021/06/02 08:32:58;;;;;;;1.30;1.20;;;18.40;99.90;;;;;;5745518;23;20247;-96
2021/06/02 08:35:29;;;;;;;1.73;1.00;;;18.40;99.90;;;;;;5000792;28;20228;-96
2021/06/02 08:41:22;;;;;;;1.23;1.00;;;18.30;99.90;;;;;;5022890;28;20201;-96
2021/06/02 08:43:53;;;;;;;1.67;1.10;;;18.30;99.90;;;;;;5028051;28;20240;-96
2021/06/02 08:49:39;;;;;;;1.90;1.13;;;18.20;99.90;;;;;;5035653;28;20198;-96
2021/06/02 08:52:12;;;;;;;2.23;1.10;;;18.10;99.90;;;;;;5038342;28;20213;-96
2021/06/02 08:54:43;;;;;;;1.10;1.00;;;18.10;99.90;;;;;;5034519;28;20357;-96
2021/06/02 08:57:15;;;;;;;0.93;0.87;;;18.10;99.90;;;;;;5028880;28;20267;-96
2021/06/02 08:59:47;;;;;;;1.40;1.03;;;18.10;99.90;;;;;;5033959;28;20212;-96
2021/06/02 09:05:44;;;;;;;1.23;1.00;;;18.00;99.90;;;;;;4979053;28;20205;-96
2021/06/02 09:08:22;;;;;;;3.57;1.20;;;18.00;99.90;;;;;;5025959;28;20270;-96
2021/06/02 09:10:53;;;;;;;0.90;0.90;;;18.00;99.90;;;;;;5025164;28;20287;-96
2021/06/02 09:13:25;;;;;;;1.53;1.20;;;17.90;99.90;;;;;;5026170;28;20248;-96
2021/06/02 09:15:57;;;;;;;1.53;1.07;;;17.90;99.90;;;;;;5024480;28;20213;-96
2021/06/02 09:18:41;;;;;;;3.23;1.20;;;17.80;99.90;;;;;;5024589;28;20212;-96
2021/06/02 09:21:23;;;;;;;2.03;1.10;;;17.80;99.90;;;;;;5029667;28;20209;-96
2021/06/02 09:24:08;;;;;;;1.20;1.07;;;17.80;99.90;;;;;;5035934;28;20252;-96
2021/06/02 09:31:21;;;;;;;2.10;0.93;;;17.70;99.90;;;;;;4979224;29;20219;-96
2021/06/02 09:33:52;;;;;;;3.77;1.40;;;17.60;99.90;;;;;;4960937;28;20223;-96
2021/06/02 09:36:31;;;;;;;1.93;1.30;;;17.60;99.90;;;;;;4961498;29;20230;-96
2021/06/02 09:39:06;;;;;;;1.27;1.10;;;17.60;99.90;;;;;;4967024;29;20219;-95
2021/06/02 09:41:42;;;;;;;2.10;1.00;;;17.60;99.90;;;;;;4963711;29;20214;-96
2021/06/02 09:44:17;;;;;;;2.50;1.37;;;17.60;99.90;;;;;;4960652;29;20246;-96
2021/06/02 09:47:06;;;;;;;2.70;1.20;;;17.60;99.90;;;;;;4959918;29;20694;-96
2021/06/02 09:49:51;;;;;;;2.63;1.47;;;17.50;99.90;;;;;;4978658;29;20203;-96
2021/06/02 09:52:41;;;;;;;1.50;1.30;;;17.50;99.90;;;;;;4960386;29;20215;-96
2021/06/02 09:55:17;;;;;;;2.10;1.20;;;17.50;99.90;;;;;;4958619;29;20263;-96
2021/06/02 09:57:54;;;;;;;1.67;1.07;;;17.40;99.90;;;;;;4942609;29;20263;-96
2021/06/02 10:00:47;;;;;;;1.97;1.20;;;17.40;99.90;;;;;;4945131;28;20260;-96
2021/06/02 10:03:27;;;;;;;5.60;1.50;;;17.30;99.90;;;;;;4960346;28;20231;-96
2021/06/02 10:05:58;;;;;;;1.30;1.20;;;17.30;99.90;;;;;;4977401;29;20207;-96
2021/06/02 10:08:41;;;;;;;1.70;1.20;;;17.30;99.90;;;;;;5015545;28;20215;-96
2021/06/02 10:11:17;;;;;;;2.70;1.30;;;17.30;99.90;;;;;;5018108;28;20202;-96
2021/06/02 10:13:52;;;;;;;1.73;1.10;;;17.30;99.90;;;;;;5030354;28;20202;-96
2021/06/02 10:16:36;;;;;;;2.07;1.27;;;17.30;99.90;;;;;;5003983;28;20664;-96
2021/06/02 10:19:12;;;;;;;2.30;1.10;;;17.30;99.90;;;;;;5024729;28;20292;-96
2021/06/02 10:21:55;;;;;;;2.47;1.30;;;17.20;99.90;;;;;;5019915;28;20212;-96
2021/06/02 10:24:43;;;;;;;1.87;1.40;;;17.20;99.90;;;;;;5023357;28;20208;-96
2021/06/02 10:30:31;;;;;;;3.23;1.17;;;17.20;99.90;;;;;;5019584;28;20283;-96
2021/06/02 10:33:05;;;;;;;1.20;1.10;;;17.10;99.90;;;;;;5020033;28;20279;-96
2021/06/02 10:35:40;;;;;;;1.73;1.27;;;17.10;99.90;;;;;;5019483;28;20255;-96
2021/06/02 10:38:20;;;;;;;2.87;1.33;;;17.00;99.90;;;;;;5019234;28;20212;-96
2021/06/02 10:40:59;;;;;;;1.93;1.43;;;17.00;99.90;;;;;;5017943;28;20264;-96
2021/06/02 10:43:34;;;;;;;3.10;1.30;;;16.90;99.90;;;;;;5002006;28;20225;-96
2021/06/02 10:46:21;;;;;;;5.90;1.50;;;16.90;99.90;;;;;;5017536;28;20206;-96
2021/06/02 10:48:55;;;;;;;2.90;1.50;;;16.90;99.90;;;;;;5018546;28;20251;-96
2021/06/02 10:51:27;;;;;;;1.50;1.40;;;16.90;99.90;;;;;;5018473;28;20244;-96
2021/06/02 10:54:11;;;;;;;2.30;1.10;;;16.80;99.90;;;;;;5020837;28;20307;-96
2021/06/02 10:57:19;;;;;;;2.60;1.43;;;16.80;99.90;;;;;;5030986;28;20225;-96
2021/06/02 10:59:59;;;;;;;1.47;1.20;;;16.80;99.90;;;;;;5026391;28;20210;-96
2021/06/02 11:02:47;;;;;;;2.00;1.33;;;16.80;99.90;;;;;;5007440;28;20413;-96
2021/06/02 11:05:21;;;;;;;1.47;1.07;;;16.80;99.90;;;;;;5007063;28;20202;-96
2021/06/02 11:07:55;;;;;;;1.67;1.07;;;16.70;99.90;;;;;;5004544;28;20270;-96
2021/06/02 11:10:34;;;;;;;1.83;1.13;;;16.70;99.90;;;;;;4986393;28;20213;-96
2021/06/02 11:13:24;;;;;;;3.80;1.13;;;16.70;99.90;;;;;;5008139;28;20222;-96
2021/06/02 11:16:07;;;;;;;1.87;1.10;;;16.70;99.90;;;;;;5031725;28;20225;-96
2021/06/02 11:18:40;;;;;;;2.23;1.40;;;16.70;99.90;;;;;;5020953;28;20209;-96
2021/06/02 11:21:15;;;;;;;1.77;1.40;;;16.70;99.90;;;;;;5028514;28;20255;-96
2021/06/02 11:23:52;;;;;;;2.23;1.10;;;16.70;99.90;;;;;;5019890;28;20279;-96
2021/06/02 11:26:26;;;;;;;2.90;1.47;;;16.70;99.90;;;;;;5020197;28;20236;-96
2021/06/02 11:29:00;;;;;;;2.33;1.50;;;16.60;99.90;;;;;;5022034;28;20271;-96
2021/06/02 11:31:33;;;;;;;3.27;1.10;;;16.60;99.90;;;;;;5003782;28;20225;-96
2021/06/02 11:34:29;;;;;;;1.50;1.40;;;16.50;99.90;;;;;;5021594;28;20237;-96
2021/06/02 11:37:02;;;;;;;1.63;1.30;;;16.50;99.90;;;;;;5021693;28;20656;-96
2021/06/02 11:39:34;;;;;;;2.10;1.40;;;16.50;99.90;;;;;;5021685;28;20244;-96
2021/06/02 11:42:07;;;;;;;4.50;1.40;;;16.40;99.90;;;;;;5021772;28;20750;-96
2021/06/02 11:44:50;;;;;;;3.33;1.47;;;16.40;99.90;;;;;;5023883;28;20245;-96
2021/06/02 11:47:24;;;;;;;4.10;1.53;;;16.40;99.90;;;;;;5026877;28;20205;-96
2021/06/02 11:50:14;;;;;;;1.73;1.07;;;16.40;99.90;;;;;;5010295;28;20236;-96
2021/06/02 11:52:57;;;;;;;2.97;1.70;;;16.30;99.90;;;;;;5028927;28;20209;-96
2021/06/02 11:58:29;;;;;;;2.83;1.30;;;16.10;99.90;;;;;;5047860;28;20208;-96
2021/06/02 12:01:03;;;;;;;1.67;1.00;;;16.10;99.90;;;;;;5021767;28;20218;-96
2021/06/02 12:04:05;;;;;;;2.03;1.20;;;16.00;99.90;;;;;;5004251;28;20241;-96
2021/06/02 12:06:37;;;;;;;1.37;1.10;;;16.00;99.90;;;;;;5003475;28;20725;-96
2021/06/02 12:09:15;;;;;;;2.83;1.40;;;16.00;99.90;;;;;;5017276;28;20213;-96
2021/06/02 12:11:51;;;;;;;3.47;1.50;;;15.90;99.90;;;;;;5022571;28;20224;-96
2021/06/02 12:14:25;;;;;;;2.03;1.20;;;15.90;99.90;;;;;;5024111;28;20216;-96
2021/06/02 12:17:08;;;;;;;3.13;1.53;;;15.90;99.90;;;;;;5025398;28;20247;-96
2021/06/02 12:19:40;;;;;;;1.40;1.00;;;15.90;99.90;;;;;;5024031;28;20233;-96
2021/06/02 12:22:16;;;;;;;2.00;1.10;;;15.80;99.90;;;;;;5025248;28;20210;-96
2021/06/02 12:25:01;;;;;;;1.73;1.23;;;15.70;99.90;;;;;;5023380;28;20304;-96
2021/06/02 12:27:51;;;;;;;1.50;1.20;;;15.70;99.90;;;;;;5005181;28;20229;-96
2021/06/02 12:30:25;;;;;;;3.10;1.30;;;15.70;99.90;;;;;;5009156;28;20210;-96
2021/06/02 12:33:00;;;;;;;3.80;1.33;;;15.70;99.90;;;;;;5022179;28;20217;-96
2021/06/02 12:35:39;;;;;;;1.40;1.30;;;15.60;99.90;;;;;;5036582;28;20197;-96
2021/06/02 12:38:15;;;;;;;1.57;1.40;;;15.60;99.90;;;;;;5035944;28;20202;-96
2021/06/02 12:40:49;;;;;;;4.23;1.50;;;15.60;99.90;;;;;;5030687;28;20260;-96
2021/06/02 12:43:33;;;;;;;3.27;1.30;;;15.60;99.90;;;;;;5024779;28;20268;-96
2021/06/02 12:46:14;;;;;;;3.73;1.47;;;15.60;99.90;;;;;;5025167;28;20263;-96
2021/06/02 12:48:49;;;;;;;1.40;1.20;;;15.70;99.90;;;;;;5028009;28;20217;-96
2021/06/02 12:51:24;;;;;;;1.47;1.30;;;15.70;99.90;;;;;;5026913;28;20240;-96
2021/06/02 12:53:57;;;;;;;1.70;1.30;;;15.70;99.90;;;;;;5024081;28;20217;-96
2021/06/02 12:56:31;;;;;;;1.60;1.50;;;15.70;99.90;;;;;;5024462;28;20224;-96
2021/06/02 12:59:07;;;;;;;3.53;1.30;;;15.70;99.90;;;;;;5012858;28;20213;-96
2021/06/02 13:01:39;;;;;;;1.80;1.20;;;15.70;99.90;;;;;;5018529;28;20194;-96
2021/06/02 13:04:27;;;;;;;2.57;1.50;;;15.80;99.90;;;;;;5035418;28;20221;-96
2021/06/02 13:07:01;;;;;;;1.50;1.30;;;15.80;99.90;;;;;;5037084;28;20244;-96
2021/06/02 13:09:35;;;;;;;2.33;1.30;;;15.80;99.90;;;;;;5036788;28;20193;-96
2021/06/02 13:12:08;;;;;;;2.07;1.47;;;15.80;99.90;;;;;;5037288;28;20220;-96
2021/06/02 13:14:41;;;;;;;2.93;1.60;;;15.90;99.90;;;;;;5032691;28;20214;-96
2021/06/02 13:17:12;;;;;;;3.70;2.07;;;15.90;99.90;;;;;;5030912;28;20209;-96
2021/06/02 13:19:58;;;;;;;2.17;1.40;;;15.90;99.90;;;;;;5013059;28;20209;-96
2021/06/02 13:22:42;;;;;;;2.17;1.43;;;15.90;99.90;;;;;;5029735;28;20206;-96
2021/06/02 13:25:29;;;;;;;2.43;1.83;;;16.00;99.90;;;;;;5007973;28;20237;-96
2021/06/02 13:28:04;;;;;;;2.30;1.60;;;16.00;99.90;;;;;;5024875;28;20206;-96
2021/06/02 13:30:45;;;;;;;4.57;2.30;;;16.00;99.90;;;;;;5024088;28;20233;-96
2021/06/02 13:33:17;;;;;;;3.40;2.00;;;16.00;99.90;;;;;;5027428;28;20213;-96
2021/06/02 13:36:03;;;;;;;1.57;1.43;;;16.00;99.90;;;;;;5026682;28;20214;-96
2021/06/02 13:38:36;;;;;;;1.67;1.57;;;16.00;99.90;;;;;;5037186;28;20186;-96
2021/06/02 13:41:08;;;;;;;2.83;1.63;;;16.10;99.90;;;;;;5036126;28;20210;-96
2021/06/02 13:43:44;;;;;;;2.53;1.70;;;16.10;99.90;;;;;;5038543;28;20264;-96
2021/06/02 13:46:22;;;;;;;2.20;1.70;;;16.10;99.90;;;;;;5039386;28;20217;-96
2021/06/02 13:51:50;;;;;;;6.67;2.40;;;16.30;99.90;;;;;;5034202;28;20210;-96
2021/06/02 13:54:23;;;;;;;2.03;1.80;;;16.30;99.90;;;;;;5023933;28;20224;-96
2021/06/02 13:57:07;;;;;;;3.70;2.00;;;16.30;99.90;;;;;;5023301;28;20209;-96
2021/06/02 13:59:45;;;;;;;2.27;2.07;;;16.40;99.90;;;;;;5021813;28;20213;-96
2021/06/02 14:02:24;;;;;;;2.10;1.70;;;16.50;99.90;;;;;;5019698;28;20212;-96
2021/06/02 14:04:56;;;;;;;3.13;1.80;;;16.60;99.90;;;;;;5000866;28;20245;-96
2021/06/02 14:07:29;;;;;;;2.33;1.80;;;16.70;99.90;;;;;;5001519;28;20273;-96
2021/06/02 14:10:00;;;;;;;2.60;1.83;;;16.80;99.90;;;;;;5016516;28;20227;-96
2021/06/02 14:12:33;;;;;;;2.90;1.80;;;16.90;99.90;;;;;;5010393;28;20271;-96
2021/06/02 14:15:06;;;;;;;4.37;1.80;;;17.00;99.90;;;;;;5018539;28;20202;-96
2021/06/02 14:17:37;;;;;;;6.37;1.83;;;17.10;99.90;;;;;;5019130;28;20240;-96
2021/06/02 14:20:09;;;;;;;3.40;1.80;;;17.20;99.90;;;;;;5022003;28;20206;-96
2021/06/02 14:22:43;;;;;;;2.87;1.50;;;17.30;99.90;;;;;;5021409;28;20277;-96
2021/06/02 14:25:18;;;;;;;2.90;1.80;;;17.40;99.90;;;;;;5018538;28;20308;-95
2021/06/02 14:27:48;;;;;;;2.43;1.77;;;17.40;99.90;;;;;;5014849;28;20730;-96
2021/06/02 14:30:20;;;;;;;4.20;1.57;;;17.40;99.90;;;;;;5017903;28;20206;-96
2021/06/02 14:32:52;;;;;;;3.27;2.00;;;17.60;99.90;;;;;;5019845;28;20624;-96
2021/06/02 14:35:24;;;;;;;3.93;2.37;;;17.70;99.90;;;;;;5020132;28;20210;-96
2021/06/02 14:38:01;;;;;;;4.00;1.77;;;17.90;99.90;;;;;;5018443;28;20244;-96
2021/06/02 14:40:32;;;;;;;2.13;1.87;;;18.20;99.90;;;;;;5013932;28;20620;-96
2021/06/02 14:43:04;;;;;;;3.03;1.63;;;18.90;99.90;;;;;;5018278;28;20221;-96
2021/06/02 14:45:39;;;;;;;2.73;1.80;;;19.70;99.90;;;;;;5017909;28;20240;-96
2021/06/02 14:48:27;;;;;;;4.97;2.17;;;20.10;99.90;;;;;;5019353;28;20676;-96
2021/06/02 14:51:14;;;;;;;2.57;1.90;;;20.50;99.90;;;;;;5028820;28;20190;-96
2021/06/02 14:53:52;;;;;;;1.87;1.40;;;20.60;99.90;;;;;;5028632;28;20205;-96
2021/06/02 14:56:37;;;;;;;3.93;1.63;;;21.40;99.90;;;;;;5006686;28;20209;-96
2021/06/02 14:59:09;;;;;;;2.67;1.73;;;21.90;99.90;;;;;;5024031;28;20214;-96
2021/06/02 15:01:40;;;;;;;4.23;1.80;;;22.30;99.90;;;;;;5023642;28;20220;-96
2021/06/02 15:04:11;;;;;;;3.33;1.70;;;21.70;99.90;;;;;;5008990;28;20253;-96
2021/06/02 15:06:42;;;;;;;3.60;1.50;;;22.40;99.90;;;;;;5025418;28;20232;-96
2021/06/02 15:09:16;;;;;;;2.30;1.63;;;22.90;99.90;;;;;;5025439;28;20213;-96
2021/06/02 15:11:49;;;;;;;2.97;1.30;;;23.40;99.90;;;;;;5027338;28;20256;-96
2021/06/02 15:14:20;;;;;;;3.43;1.70;;;23.70;99.90;;;;;;5028949;28;20220;-96
2021/06/02 15:16:53;;;;;;;2.83;1.37;;;24.00;99.90;;;;;;5035160;28;20237;-96
2021/06/02 15:19:25;;;;;;;3.03;1.70;;;24.30;99.90;;;;;;5036105;28;20297;-96
2021/06/02 15:21:56;;;;;;;3.15;1.60;;;24.60;99.90;;;;;;5036161;28;20190;-96
2021/06/02 15:24:29;;;;;;;4.85;1.80;;;24.90;99.90;;;;;;5010717;28;20230;-96
2021/06/02 15:27:04;;;;;;;4.47;2.10;;;25.10;99.90;;;;;;5009471;28;20222;-96
2021/06/02 15:29:50;;;;;;;4.20;1.77;;;24.30;99.90;;;;;;5007444;28;20553;-96
2021/06/02 15:44:58;;;;;;;4.60;2.20;;;22.50;99.90;;;;;;5032488;28;20243;-96
2021/06/02 15:47:29;;;;;;;2.07;1.80;;;22.60;99.90;;;;;;5001747;28;20236;-96
2021/06/02 15:50:01;;;;;;;3.43;1.93;;;22.60;99.90;;;;;;5035662;28;20206;-96
2021/06/02 15:52:37;;;;;;;3.43;2.10;;;22.60;99.90;;;;;;5034507;28;20210;-96
2021/06/02 15:55:23;;;;;;;5.40;2.20;;;22.50;99.90;;;;;;5030520;28;20655;-96
2021/06/02 15:58:15;;;;;;;4.77;1.97;;;22.50;99.90;;;;;;4951679;29;20255;-96
2021/06/02 16:01:17;;;;;;;2.90;1.80;;;22.60;99.90;;;;;;4956128;29;20211;-96
2021/06/02 16:03:47;;;;;;;2.17;1.73;;;22.60;99.90;;;;;;4953400;28;20232;-96
2021/06/02 16:06:26;;;;;;;2.80;1.73;;;22.60;99.90;;;;;;4952684;28;20212;-96
2021/06/02 16:09:11;;;;;;;5.77;1.90;;;22.50;99.90;;;;;;4912678;29;20236;-96
2021/06/02 16:11:45;;;;;;;3.97;1.77;;;22.60;99.90;;;;;;4933422;29;20378;-96
2021/06/02 16:14:17;;;;;;;5.27;2.50;;;22.30;99.90;;;;;;4938098;29;20312;-96
2021/06/02 16:16:50;;;;;;;5.33;2.03;;;22.10;99.90;;;;;;4922852;29;20216;-96
2021/06/02 16:19:21;;;;;;;3.77;1.80;;;22.20;99.90;;;;;;4941433;29;20224;-96
2021/06/02 16:22:02;;;;;;;4.37;2.00;;;22.20;99.90;;;;;;4935238;29;20573;-96
2021/06/02 16:24:33;;;;;;;4.10;2.33;;;22.20;99.90;;;;;;4936988;29;20326;-96
2021/06/02 16:27:07;;;;;;;3.23;2.23;;;22.20;99.90;;;;;;4934008;29;20208;-95
2021/06/02 16:29:38;;;;;;;4.23;2.27;;;22.20;99.90;;;;;;4942642;29;20235;-96
2021/06/02 16:32:11;;;;;;;4.67;2.10;;;22.00;99.90;;;;;;4939268;29;20259;-92
2021/06/02 16:34:42;;;;;;;4.30;2.90;;;22.10;99.90;;;;;;4942522;28;20199;-88
2021/06/02 16:37:14;;;;;;;3.60;2.70;;;22.10;99.90;;;;;;5015097;28;20635;-96
2021/06/02 16:39:50;;;;;;;5.37;2.70;;;22.30;99.90;;;;;;5015822;28;20202;-96
2021/06/02 16:42:22;;;;;;;4.80;2.70;;;22.20;99.90;;;;;;5016299;28;20209;-96
2021/06/02 16:44:53;;;;;;;3.20;2.10;;;22.40;99.90;;;;;;5014480;28;20703;-96
2021/06/02 16:47:27;;;;;;;6.23;2.40;;;22.40;99.90;;;;;;5015653;28;20212;-96
2021/06/02 16:49:58;;;;;;;3.93;2.07;;;22.60;99.90;;;;;;5015543;28;20202;-96
2021/06/02 16:52:32;;;;;;;6.43;2.67;;;22.70;99.90;;;;;;5016422;28;20206;-96
2021/06/02 16:55:05;;;;;;;3.53;2.40;;;22.80;99.90;;;;;;5016161;28;20213;-96
2021/06/02 16:57:36;;;;;;;6.10;2.90;;;22.90;99.90;;;;;;5016537;28;20292;-96
2021/06/02 17:00:11;;;;;;;4.00;2.53;;;22.90;99.90;;;;;;5015646;28;20223;-96
2021/06/02 17:02:44;;;;;;;5.43;2.83;;;22.90;99.90;;;;;;5016278;28;20237;-96
2021/06/02 17:05:16;;;;;;;7.27;2.60;;;23.00;99.90;;;;;;5017135;28;20260;-95
2021/06/02 17:07:50;;;;;;;5.23;3.10;;;23.00;99.90;;;;;;5016932;28;20297;-96
2021/06/02 17:10:21;;;;;;;4.80;2.73;;;23.10;99.90;;;;;;5015679;28;20209;-96
2021/06/02 17:12:57;;;;;;;4.40;3.20;;;23.10;99.90;;;;;;5022152;28;20201;-96
2021/06/02 17:15:28;;;;;;;3.87;2.53;;;22.90;99.90;;;;;;5023967;28;20233;-96
2021/06/02 17:18:05;;;;;;;4.87;2.97;;;22.90;99.90;;;;;;5008858;28;20292;-96
2021/06/02 17:20:41;;;;;;;7.20;3.07;;;23.10;99.90;;;;;;5023070;28;20213;-96
2021/06/02 17:23:13;;;;;;;5.27;2.80;;;23.20;99.90;;;;;;5002335;28;20252;-96
2021/06/02 17:25:44;;;;;;;4.57;2.53;;;23.40;99.90;;;;;;5021650;28;20268;-96
2021/06/02 17:28:20;;;;;;;5.83;2.97;;;23.50;99.90;;;;;;5021845;28;20372;-96
2021/06/02 17:30:52;;;;;;;8.10;3.90;;;23.50;99.90;;;;;;5021948;28;20288;-96
2021/06/02 17:33:28;;;;;;;6.03;3.00;;;23.60;99.90;;;;;;5021756;28;20308;-96
2021/06/02 17:36:13;;;;;;;4.23;2.90;;;23.60;99.90;;;;;;5006781;28;20209;-96
2021/06/02 17:38:46;;;;;;;7.60;3.63;;;23.50;99.90;;;;;;5024245;28;20888;-96
2021/06/02 17:41:18;;;;;;;6.87;3.73;;;23.50;99.90;;;;;;5020401;28;20233;-96
2021/06/02 17:43:48;;;;;;;4.97;3.63;;;23.60;99.90;;;;;;5021854;28;20245;-96
2021/06/02 17:46:22;;;;;;;5.83;3.67;;;23.50;99.90;;;;;;5021285;28;20301;-96
2021/06/02 17:48:59;;;;;;;17.87;4.10;;;23.40;99.90;;;;;;5020121;28;20259;-96
2021/06/02 17:51:38;;;;;;;5.80;3.70;;;23.50;99.90;;;;;;5021339;28;20667;-96
2021/06/02 17:54:15;;;;;;;4.97;3.10;;;23.50;99.90;;;;;;5006391;28;20297;-96
2021/06/02 17:56:52;;;;;;;5.20;3.00;;;23.60;99.90;;;;;;5021507;28;20296;-96
2021/06/02 17:59:24;;;;;;;5.07;3.20;;;23.70;99.90;;;;;;5020523;28;20227;-96